createdAt,value
2022-08-09T00:00:12.736Z,8.4
2022-08-09T00:10:02.614Z,7.8
2022-08-09T00:15:15.139Z,7.9
2022-08-09T00:20:01.262Z,8.3
2022-08-09T00:25:10.124Z,8.8
2022-08-09T00:30:26.937Z,9.0
2022-08-09T00:35:03.352Z,9.6
2022-08-09T00:45:21.319Z,9.6
2022-08-09T00:50:01.599Z,9.2
2022-08-09T00:55:02.139Z,9.2
2022-08-09T01:00:23.621Z,9.0
2022-08-09T01:05:02.816Z,8.4
2022-08-09T01:10:01.484Z,8.8
2022-08-09T01:15:21.294Z,8.7
2022-08-09T01:20:03.499Z,8.5
2022-08-09T01:25:02.844Z,8.8
2022-08-09T01:30:08.434Z,9.1
2022-08-09T01:40:03.011Z,10.4
2022-08-09T01:45:05.763Z,11.0
2022-08-09T01:50:12.925Z,10.8
2022-08-09T01:55:02.808Z,11.6
2022-08-09T02:10:04.597Z,11.1
2022-08-09T02:15:07.815Z,11.3
2022-08-09T02:20:02.417Z,11.0
2022-08-09T02:25:01.714Z,11.6
2022-08-09T02:30:05.477Z,11.6
2022-08-09T02:45:06.843Z,11.6
2022-08-09T02:50:06.565Z,10.5
2022-08-09T02:55:03.390Z,10.0
2022-08-09T03:00:26.464Z,9.9
2022-08-09T03:05:01.595Z,10.0
2022-08-09T03:10:01.994Z,10.3
2022-08-09T03:15:09.466Z,11.1
2022-08-09T03:20:11.356Z,11.6
2022-08-09T03:30:09.179Z,11.9
2022-08-09T03:35:05.097Z,11.4
2022-08-09T03:40:05.174Z,10.8
2022-08-09T03:45:05.566Z,10.4
2022-08-09T03:50:02.533Z,10.2
2022-08-09T03:55:09.719Z,10.1
2022-08-09T04:00:02.954Z,10.8
2022-08-09T04:05:28.322Z,11.0
2022-08-09T04:10:01.619Z,11.3
2022-08-09T04:20:02.939Z,11.7
2022-08-09T04:25:03.230Z,10.9
2022-08-09T04:30:03.567Z,11.5
2022-08-09T04:35:01.816Z,11.0
2022-08-09T04:40:03.571Z,10.2
2022-08-09T04:45:03.429Z,11.7
2022-08-09T04:50:01.828Z,13.0
2022-08-09T05:00:08.919Z,13.8
2022-08-09T05:05:10.701Z,15.0
2022-08-09T05:10:02.483Z,14.2
2022-08-09T05:20:02.852Z,14.9
2022-08-09T05:25:03.870Z,14.9
2022-08-09T05:30:03.304Z,14.7
2022-08-09T05:35:02.064Z,15.1
2022-08-09T05:40:03.970Z,14.8
2022-08-09T05:45:02.653Z,13.7
2022-08-09T05:55:21.744Z,13.5
2022-08-09T06:00:07.846Z,13.0
2022-08-09T06:05:01.888Z,12.5
2022-08-09T06:10:04.121Z,12.7
2022-08-09T06:15:11.028Z,12.5
2022-08-09T06:25:01.942Z,12.3
2022-08-09T06:30:16.046Z,11.6
2022-08-09T06:35:07.912Z,11.5
2022-08-09T06:40:24.626Z,10.6
2022-08-09T06:50:16.787Z,8.6
2022-08-09T06:55:14.776Z,8.2
2022-08-09T07:05:02.427Z,8.3
2022-08-09T07:10:32.166Z,8.6
2022-08-09T07:25:10.059Z,9.3
2022-08-09T07:30:03.203Z,9.3
2022-08-09T07:40:07.929Z,9.1
2022-08-09T07:45:06.584Z,8.3
2022-08-09T07:50:10.509Z,7.9
2022-08-09T07:55:12.225Z,7.6
2022-08-09T08:00:09.382Z,6.9
2022-08-09T08:05:01.728Z,6.5
2022-08-09T08:10:11.284Z,6.8
2022-08-09T08:15:03.485Z,6.4
2022-08-09T08:20:13.602Z,6.0
2022-08-09T08:25:01.912Z,6.0
2022-08-09T08:30:11.268Z,5.7
2022-08-09T08:35:02.059Z,5.1
2022-08-09T08:40:02.820Z,5.2
2022-08-09T08:45:14.090Z,5.2
2022-08-09T08:55:05.354Z,5.0
2022-08-09T09:00:20.609Z,5.1
2022-08-09T09:05:13.505Z,4.9
2022-08-09T09:10:06.975Z,4.4
2022-08-09T09:15:06.367Z,4.6
2022-08-09T09:20:06.319Z,4.5
2022-08-09T09:35:01.658Z,5.0
2022-08-09T09:40:05.869Z,4.9
2022-08-09T09:45:08.584Z,5.0
2022-08-09T09:50:51.113Z,4.9
2022-08-09T09:55:33.699Z,4.7
2022-08-09T10:00:03.595Z,5.2
2022-08-09T10:05:09.486Z,5.4
2022-08-09T10:15:04.528Z,5.4
2022-08-09T10:20:01.626Z,5.4
2022-08-09T10:25:21.963Z,4.9
2022-08-09T10:55:18.109Z,6.0
2022-08-09T11:00:22.387Z,6.5
2022-08-09T11:10:01.543Z,7.0
2022-08-09T11:15:19.336Z,6.8
2022-08-09T11:20:20.676Z,7.0
2022-08-09T11:25:04.151Z,6.4
2022-08-09T11:30:34.736Z,6.0
2022-08-09T11:35:09.630Z,6.1
2022-08-09T11:40:06.780Z,6.1
2022-08-09T11:45:07.106Z,6.1
2022-08-09T12:00:04.841Z,6.3
2022-08-09T12:05:02.341Z,6.1
2022-08-09T12:10:02.701Z,6.0
2022-08-09T12:20:20.109Z,6.4
2022-08-09T12:25:01.366Z,6.9
2022-08-09T12:35:04.972Z,8.2
2022-08-09T12:40:06.091Z,9.0
2022-08-09T12:50:03.053Z,8.5
2022-08-09T13:00:14.818Z,8.3
2022-08-09T13:05:03.000Z,7.6
2022-08-09T13:10:04.758Z,7.8
2022-08-09T13:15:07.756Z,8.2
2022-08-09T13:20:14.237Z,7.8
2022-08-09T13:25:04.003Z,8.2
2022-08-09T13:35:11.861Z,8.8
2022-08-09T13:45:13.433Z,9.6
2022-08-09T13:50:17.961Z,9.5
2022-08-09T13:55:17.917Z,9.3
2022-08-09T14:00:04.509Z,9.1
2022-08-09T14:05:01.775Z,8.5
2022-08-09T14:10:03.413Z,7.6
2022-08-09T14:20:04.453Z,6.6
2022-08-09T14:35:04.253Z,7.7
2022-08-09T14:40:02.269Z,7.8
2022-08-09T14:50:02.811Z,8.4
2022-08-09T15:00:03.866Z,8.0
2022-08-09T15:05:02.467Z,7.8
2022-08-09T15:10:17.864Z,7.5
2022-08-09T15:15:02.486Z,7.3
2022-08-09T15:20:04.628Z,7.8
2022-08-09T15:25:06.967Z,8.0
2022-08-09T15:40:12.090Z,8.4
2022-08-09T15:45:04.401Z,7.9
2022-08-09T15:50:05.608Z,7.8
2022-08-09T15:55:01.391Z,7.6
2022-08-09T16:00:04.571Z,8.0
2022-08-09T16:05:06.729Z,8.3
2022-08-09T16:10:05.451Z,7.9
2022-08-09T16:15:02.750Z,7.6
2022-08-09T16:20:09.184Z,7.0
2022-08-09T16:25:01.885Z,7.0
2022-08-09T16:30:25.950Z,6.8
2022-08-09T16:35:02.754Z,7.3
2022-08-09T16:40:09.225Z,7.5
2022-08-09T16:45:03.194Z,8.0
2022-08-09T16:55:01.514Z,7.7
2022-08-09T17:00:03.771Z,7.5
2022-08-09T17:05:03.704Z,7.2
2022-08-09T17:10:04.271Z,7.0
2022-08-09T17:15:58.801Z,7.1
2022-08-09T17:25:04.739Z,8.2
2022-08-09T17:30:20.458Z,8.6
2022-08-09T17:45:06.766Z,8.0
2022-08-09T17:50:36.598Z,7.9
2022-08-09T17:55:01.607Z,8.4
2022-08-09T18:00:10.471Z,8.8
2022-08-09T18:05:01.544Z,8.6
2022-08-09T18:10:05.759Z,8.4
2022-08-09T18:15:12.367Z,8.3
2022-08-09T18:25:01.463Z,7.5
2022-08-09T18:35:01.570Z,8.2
2022-08-09T18:40:01.905Z,8.4
2022-08-09T18:50:12.451Z,9.0
2022-08-09T18:55:01.527Z,9.5
2022-08-09T19:00:08.716Z,9.5
2022-08-09T19:05:20.816Z,9.4
2022-08-09T19:10:18.070Z,9.8
2022-08-09T19:15:08.429Z,9.8
2022-08-09T19:20:03.292Z,9.6
2022-08-09T19:30:28.389Z,9.9
2022-08-09T19:35:11.517Z,9.6
2022-08-09T19:40:05.702Z,10.3
2022-08-09T19:45:03.287Z,10.8
2022-08-09T19:55:01.369Z,10.8
2022-08-09T20:00:13.664Z,10.8
2022-08-09T20:05:02.150Z,10.4
2022-08-09T20:20:04.685Z,11.2
2022-08-09T20:25:01.368Z,11.4
2022-08-09T20:30:03.848Z,10.6
2022-08-09T20:35:02.186Z,10.8
2022-08-09T20:40:18.505Z,10.2
2022-08-09T20:50:01.439Z,10.2
2022-08-09T20:55:03.185Z,10.7
2022-08-09T21:00:32.197Z,10.6
2022-08-09T21:10:02.454Z,10.4
2022-08-09T21:15:03.756Z,9.8
2022-08-09T21:25:01.414Z,9.4
2022-08-09T21:30:02.359Z,9.3
2022-08-09T21:35:01.547Z,8.9
2022-08-09T21:40:02.098Z,8.6
2022-08-09T21:45:03.220Z,8.6
2022-08-09T21:55:05.011Z,9.0
2022-08-09T22:00:09.155Z,9.5
2022-08-09T22:05:16.968Z,10.2
2022-08-09T22:10:05.586Z,10.2
2022-08-09T22:15:13.967Z,10.6
2022-08-09T22:20:01.532Z,10.5
2022-08-09T22:30:03.518Z,10.8
2022-08-09T22:36:00.490Z,11.2
2022-08-09T22:40:03.427Z,11.6
2022-08-09T22:50:01.704Z,11.6
2022-08-09T22:55:01.607Z,11.5
2022-08-09T23:00:06.211Z,11.9
2022-08-09T23:05:06.097Z,11.7
2022-08-09T23:10:01.075Z,11.8
2022-08-09T23:15:02.022Z,11.5
2022-08-09T23:20:08.401Z,11.6
2022-08-09T23:25:01.402Z,11.1
2022-08-09T23:30:02.429Z,10.8
2022-08-09T23:40:01.880Z,11.8
2022-08-09T23:45:01.433Z,11.8
2022-08-09T23:50:01.033Z,12.4
2022-08-09T23:55:04.290Z,12.5
